Time;durP1;ratioP1;P1;durP2;ratioP2;P2;SDS_P1;SDS_P2;PMS_P1;PMS_P2;Temp;Humidity;BMP_temperature;BMP_pressure;BME280_temperature;BME280_humidity;BME280_pressure;Samples;Min_cycle;Max_cycle;Signal;HPM_P1;HPM_P2
2022/06/07 00:00:50;;;;;;;3.28;2.97;;;;;;;;;;5053833;28;20396;-81
2022/06/07 00:03:16;;;;;;;3.20;3.00;;;;;;;;;;5056954;28;20377;-80
2022/06/07 00:05:43;;;;;;;3.63;3.10;;;;;;;;;;5053685;28;20373;-81
2022/06/07 00:08:10;;;;;;;3.37;3.00;;;;;;;;;;5053679;28;20854;-80
2022/06/07 00:10:36;;;;;;;3.63;2.88;;;;;;;;;;5052364;28;20956;-80
2022/06/07 00:13:03;;;;;;;3.78;3.28;;;;;;;;;;5053562;28;20400;-81
2022/06/07 00:15:29;;;;;;;4.00;2.90;;;;;;;;;;5053271;28;20436;-82
2022/06/07 00:17:55;;;;;;;3.88;3.45;;;;;;;;;;5053488;28;20377;-80
2022/06/07 00:20:22;;;;;;;3.10;2.90;;;;;;;;;;5053375;28;20384;-81
2022/06/07 00:22:48;;;;;;;3.42;3.13;;;;;;;;;;5053181;28;20386;-81
2022/06/07 00:25:15;;;;;;;4.00;2.80;;;;;;;;;;5053386;28;20541;-80
2022/06/07 00:27:41;;;;;;;3.38;3.05;;;;;;;;;;5053207;28;20790;-81
2022/06/07 00:30:08;;;;;;;3.40;3.20;;;;;;;;;;5053653;28;20385;-81
2022/06/07 00:32:34;;;;;;;4.10;3.35;;;;;;;;;;5053059;28;20517;-80
2022/06/07 00:35:01;;;;;;;3.20;2.90;;;;;;;;;;5053050;28;20416;-81
2022/06/07 00:37:27;;;;;;;3.40;2.90;;;;;;;;;;5053130;28;20377;-81
2022/06/07 00:39:53;;;;;;;3.10;2.90;;;;;;;;;;5053475;28;20422;-81
2022/06/07 00:42:19;;;;;;;2.80;2.60;;;;;;;;;;5053052;28;20392;-81
2022/06/07 00:44:46;;;;;;;3.72;3.03;;;;;;;;;;5051284;28;20398;-81
2022/06/07 00:47:14;;;;;;;2.83;2.63;;;;;;;;;;5044764;28;20883;-81
2022/06/07 00:49:46;;;;;;;3.33;3.05;;;;;;;;;;5048534;28;20408;-81
2022/06/07 00:52:12;;;;;;;2.90;2.70;;;;;;;;;;5046875;28;20469;-81
2022/06/07 00:54:38;;;;;;;3.30;3.03;;;;;;;;;;5051281;28;20397;-83
2022/06/07 00:57:05;;;;;;;3.20;2.90;;;;;;;;;;5051518;28;20431;-82
2022/06/07 00:59:31;;;;;;;2.93;2.73;;;;;;;;;;5052359;28;20515;-83
2022/06/07 01:01:57;;;;;;;3.63;3.33;;;;;;;;;;5052578;28;20455;-81
2022/06/07 01:04:23;;;;;;;3.40;3.10;;;;;;;;;;5052737;28;20863;-81
2022/06/07 01:12:19;;;;;;;3.70;3.40;;;;;;;;;;5052390;28;20901;-83
2022/06/07 01:14:45;;;;;;;3.45;2.95;;;;;;;;;;5052078;28;20421;-83
2022/06/07 01:17:11;;;;;;;3.25;2.95;;;;;;;;;;5051265;28;20378;-82
2022/06/07 01:19:37;;;;;;;3.80;3.00;;;;;;;;;;5051045;28;20373;-81
2022/06/07 01:22:03;;;;;;;3.55;3.25;;;;;;;;;;5049114;28;20436;-82
2022/06/07 01:24:29;;;;;;;3.47;3.17;;;;;;;;;;5051269;28;20878;-82
2022/06/07 01:26:55;;;;;;;3.25;2.97;;;;;;;;;;5050825;28;20386;-82
2022/06/07 01:29:22;;;;;;;5.65;3.40;;;;;;;;;;5048496;28;20377;-82
2022/06/07 01:31:48;;;;;;;3.92;3.60;;;;;;;;;;5048805;28;20496;-82
2022/06/07 01:34:15;;;;;;;3.53;3.30;;;;;;;;;;5048921;28;20420;-81
2022/06/07 01:36:41;;;;;;;3.83;3.53;;;;;;;;;;5049205;28;20380;-82
2022/06/07 01:41:54;;;;;;;3.67;3.38;;;;;;;;;;5049924;28;20459;-80
2022/06/07 01:44:21;;;;;;;3.90;3.45;;;;;;;;;;5044073;28;20377;-81
2022/06/07 01:46:47;;;;;;;3.75;3.45;;;;;;;;;;5050722;28;20385;-81
2022/06/07 01:49:14;;;;;;;3.70;3.35;;;;;;;;;;5050375;28;20431;-82
2022/06/07 01:51:40;;;;;;;3.53;3.22;;;;;;;;;;5049882;28;20393;-82
2022/06/07 01:54:06;;;;;;;3.77;3.37;;;;;;;;;;5049888;28;20409;-82
2022/06/07 01:56:32;;;;;;;4.35;4.00;;;;;;;;;;5049292;28;20453;-82
2022/06/07 01:58:58;;;;;;;4.03;3.70;;;;;;;;;;5051692;28;20404;-82
2022/06/07 02:01:24;;;;;;;4.00;3.70;;;;;;;;;;5051340;28;20887;-82
2022/06/07 02:03:50;;;;;;;5.77;3.80;;;;;;;;;;5055889;28;20374;-82
2022/06/07 02:06:16;;;;;;;5.20;4.63;;;;;;;;;;5055911;28;20890;-82
2022/06/07 02:08:42;;;;;;;4.70;4.20;;;;;;;;;;5055871;28;20442;-82
2022/06/07 02:11:10;;;;;;;4.90;4.50;;;;;;;;;;5055825;28;20378;-82
2022/06/07 02:13:36;;;;;;;4.97;4.57;;;;;;;;;;5066337;28;20372;-82
2022/06/07 02:16:03;;;;;;;6.88;4.72;;;;;;;;;;5055784;28;20427;-81
2022/06/07 02:18:29;;;;;;;4.38;4.07;;;;;;;;;;5055761;28;20386;-81
2022/06/07 02:20:57;;;;;;;4.65;4.25;;;;;;;;;;5055720;28;20427;-81
2022/06/07 02:23:24;;;;;;;5.27;4.27;;;;;;;;;;5046576;28;20400;-81
2022/06/07 02:25:52;;;;;;;4.15;3.85;;;;;;;;;;5048024;28;20435;-81
2022/06/07 02:28:19;;;;;;;3.30;3.00;;;;;;;;;;5047295;28;20377;-81
2022/06/07 02:30:46;;;;;;;4.20;3.20;;;;;;;;;;5054074;28;20430;-81
2022/06/07 02:33:12;;;;;;;3.22;3.03;;;;;;;;;;5053880;28;20417;-82
2022/06/07 02:35:40;;;;;;;3.00;2.70;;;;;;;;;;5055239;28;20437;-82
2022/06/07 02:38:06;;;;;;;3.23;2.57;;;;;;;;;;5055458;28;20432;-81
2022/06/07 02:40:33;;;;;;;2.53;2.33;;;;;;;;;;5054450;28;20472;-81
2022/06/07 02:42:59;;;;;;;2.90;2.70;;;;;;;;;;5055181;28;20476;-81
2022/06/07 02:45:25;;;;;;;2.92;2.67;;;;;;;;;;5055584;28;20405;-82
2022/06/07 02:47:51;;;;;;;2.50;2.28;;;;;;;;;;5053934;28;20887;-81
2022/06/07 02:50:17;;;;;;;3.15;2.78;;;;;;;;;;5055095;28;20386;-81
2022/06/07 02:52:43;;;;;;;2.60;2.40;;;;;;;;;;5055151;28;20468;-81
2022/06/07 02:55:09;;;;;;;3.60;2.78;;;;;;;;;;5057017;28;20496;-81
2022/06/07 02:57:35;;;;;;;2.57;2.30;;;;;;;;;;5065034;28;20388;-81
2022/06/07 03:00:02;;;;;;;2.47;2.38;;;;;;;;;;5054943;28;20385;-81
2022/06/07 03:02:28;;;;;;;2.45;2.25;;;;;;;;;;5054851;28;20369;-81
2022/06/07 03:04:54;;;;;;;2.80;2.55;;;;;;;;;;5054932;28;20586;-81
2022/06/07 03:07:20;;;;;;;2.67;2.47;;;;;;;;;;5054913;28;20869;-81
2022/06/07 03:09:46;;;;;;;2.50;2.30;;;;;;;;;;5054881;28;20392;-81
2022/06/07 03:12:12;;;;;;;2.67;2.47;;;;;;;;;;5054765;28;20382;-81
2022/06/07 03:14:38;;;;;;;3.40;2.70;;;;;;;;;;5053327;28;20441;-81
2022/06/07 03:17:04;;;;;;;3.13;2.80;;;;;;;;;;5054311;28;20374;-81
2022/06/07 03:19:30;;;;;;;2.92;2.70;;;;;;;;;;5054244;28;20373;-82
2022/06/07 03:21:56;;;;;;;2.83;2.63;;;;;;;;;;5054376;28;20456;-81
2022/06/07 03:24:22;;;;;;;2.63;2.43;;;;;;;;;;5054564;28;20854;-81
2022/06/07 03:26:48;;;;;;;2.50;2.40;;;;;;;;;;5054565;28;20472;-81
2022/06/07 03:29:14;;;;;;;3.30;2.50;;;;;;;;;;5054393;28;20902;-81
2022/06/07 03:31:40;;;;;;;2.70;2.50;;;;;;;;;;5054386;28;20386;-81
2022/06/07 03:34:07;;;;;;;2.03;1.90;;;;;;;;;;5054157;28;20447;-81
2022/06/07 03:36:33;;;;;;;2.43;1.80;;;;;;;;;;5052002;28;20458;-81
2022/06/07 03:39:01;;;;;;;2.30;2.10;;;;;;;;;;5052898;28;20373;-81
2022/06/07 03:41:28;;;;;;;1.90;1.80;;;;;;;;;;5052955;28;20397;-81
2022/06/07 03:43:54;;;;;;;2.42;2.25;;;;;;;;;;5054144;28;20400;-82
2022/06/07 03:46:22;;;;;;;2.20;2.10;;;;;;;;;;5052994;28;20377;-81
2022/06/07 03:48:48;;;;;;;2.13;2.00;;;;;;;;;;5053652;28;20439;-81
2022/06/07 03:51:16;;;;;;;2.15;2.05;;;;;;;;;;5053618;28;20373;-82
2022/06/07 03:53:43;;;;;;;2.28;2.13;;;;;;;;;;5053987;28;20731;-81
2022/06/07 03:56:09;;;;;;;2.22;2.00;;;;;;;;;;5053948;28;20734;-81
2022/06/07 03:58:38;;;;;;;2.30;2.10;;;;;;;;;;5053842;28;20385;-81
2022/06/07 04:01:05;;;;;;;2.22;2.03;;;;;;;;;;5054030;28;20370;-81
2022/06/07 04:03:31;;;;;;;1.90;1.80;;;;;;;;;;5052456;28;22040;-81
2022/06/07 04:05:57;;;;;;;1.80;1.70;;;;;;;;;;5052726;28;20401;-81
2022/06/07 04:08:25;;;;;;;2.20;1.90;;;;;;;;;;5045514;28;20402;-81
2022/06/07 04:10:58;;;;;;;2.60;1.70;;;;;;;;;;5041126;28;20383;-81
2022/06/07 04:13:27;;;;;;;2.10;1.88;;;;;;;;;;5052151;28;20381;-81
2022/06/07 04:15:53;;;;;;;3.10;1.70;;;;;;;;;;5052672;28;20536;-81
2022/06/07 04:18:19;;;;;;;1.83;1.60;;;;;;;;;;5053592;28;20377;-81
2022/06/07 04:20:45;;;;;;;1.90;1.80;;;;;;;;;;5053440;28;20397;-81
2022/06/07 04:23:16;;;;;;;2.00;1.70;;;;;;;;;;5053347;28;20467;-81
2022/06/07 04:25:42;;;;;;;1.85;1.58;;;;;;;;;;5052647;28;20886;-81
2022/06/07 04:28:08;;;;;;;2.28;1.77;;;;;;;;;;5053366;28;20381;-81
2022/06/07 04:30:35;;;;;;;1.80;1.70;;;;;;;;;;5053240;28;20407;-81
2022/06/07 04:33:01;;;;;;;2.05;1.95;;;;;;;;;;5053129;28;20389;-81
2022/06/07 04:35:27;;;;;;;1.65;1.55;;;;;;;;;;5053155;28;20554;-81
2022/06/07 04:37:54;;;;;;;2.03;1.93;;;;;;;;;;5053125;28;20416;-81
2022/06/07 04:40:20;;;;;;;1.87;1.77;;;;;;;;;;5053021;28;20847;-81
2022/06/07 04:42:47;;;;;;;1.90;1.70;;;;;;;;;;5052986;28;20386;-81
2022/06/07 04:45:15;;;;;;;2.50;2.30;;;;;;;;;;5053313;28;20941;-81
2022/06/07 04:47:42;;;;;;;2.83;2.63;;;;;;;;;;5053183;28;20389;-81
2022/06/07 04:50:09;;;;;;;2.85;2.55;;;;;;;;;;5052846;28;20438;-81
2022/06/07 04:52:35;;;;;;;3.47;3.17;;;;;;;;;;5052840;28;20397;-81
2022/06/07 04:55:01;;;;;;;3.10;2.90;;;;;;;;;;5052720;28;20417;-81
2022/06/07 04:57:29;;;;;;;4.47;4.10;;;;;;;;;;5051436;28;20773;-81
2022/06/07 04:59:55;;;;;;;3.70;3.50;;;;;;;;;;5055996;28;20383;-81
2022/06/07 05:02:21;;;;;;;3.60;3.30;;;;;;;;;;5054779;28;20387;-81
2022/06/07 05:04:48;;;;;;;3.20;3.00;;;;;;;;;;5051245;28;20443;-81
2022/06/07 05:07:14;;;;;;;3.10;2.88;;;;;;;;;;5035603;28;20735;-82
2022/06/07 05:09:40;;;;;;;3.15;2.95;;;;;;;;;;5051731;28;20393;-81
2022/06/07 05:12:07;;;;;;;2.65;2.45;;;;;;;;;;5051002;28;20389;-81
2022/06/07 05:14:33;;;;;;;3.17;2.88;;;;;;;;;;5051708;28;20405;-81
2022/06/07 05:16:59;;;;;;;2.85;2.65;;;;;;;;;;5052474;28;20423;-81
2022/06/07 05:19:25;;;;;;;3.13;2.83;;;;;;;;;;5052455;28;20374;-81
2022/06/07 05:21:51;;;;;;;2.40;2.22;;;;;;;;;;5052272;28;20381;-81
2022/06/07 05:24:17;;;;;;;2.90;2.60;;;;;;;;;;5052324;28;20416;-82
2022/06/07 05:26:48;;;;;;;2.70;2.47;;;;;;;;;;5052304;28;20378;-82
2022/06/07 05:29:18;;;;;;;4.53;2.60;;;;;;;;;;5052313;28;20935;-82
2022/06/07 05:31:44;;;;;;;3.10;2.80;;;;;;;;;;5052236;28;20381;-82
2022/06/07 05:34:10;;;;;;;2.70;2.50;;;;;;;;;;5052098;28;20405;-82
2022/06/07 05:36:36;;;;;;;2.30;2.10;;;;;;;;;;5052180;28;20389;-82
2022/06/07 05:39:03;;;;;;;2.50;2.30;;;;;;;;;;5052274;28;20488;-82
2022/06/07 05:41:29;;;;;;;3.20;2.80;;;;;;;;;;5049912;28;20614;-82
2022/06/07 05:43:56;;;;;;;2.58;2.10;;;;;;;;;;5047861;28;20472;-82
2022/06/07 05:46:22;;;;;;;2.15;2.05;;;;;;;;;;5051036;28;20933;-82
2022/06/07 05:48:48;;;;;;;2.58;2.38;;;;;;;;;;5050188;28;20420;-82
2022/06/07 05:51:14;;;;;;;1.90;1.80;;;;;;;;;;5050339;28;20385;-82
2022/06/07 05:53:40;;;;;;;2.10;2.00;;;;;;;;;;5051942;28;20862;-82
2022/06/07 05:56:11;;;;;;;2.37;1.90;;;;;;;;;;5051944;28;20470;-82
2022/06/07 05:58:37;;;;;;;1.88;1.77;;;;;;;;;;5050835;28;20878;-82
2022/06/07 06:01:04;;;;;;;2.30;2.10;;;;;;;;;;5054501;28;20392;-82
2022/06/07 06:03:30;;;;;;;2.20;2.10;;;;;;;;;;5051128;28;20432;-82
2022/06/07 06:05:56;;;;;;;2.20;2.00;;;;;;;;;;5051506;28;20854;-81
2022/06/07 06:11:15;;;;;;;2.05;1.95;;;;;;;;;;5051946;28;20384;-82
2022/06/07 06:13:41;;;;;;;1.80;1.70;;;;;;;;;;5050555;28;20413;-81
2022/06/07 06:16:11;;;;;;;1.80;1.70;;;;;;;;;;5050944;28;20467;-81
2022/06/07 06:18:39;;;;;;;2.35;1.92;;;;;;;;;;5051119;28;20453;-82
2022/06/07 06:21:06;;;;;;;1.77;1.67;;;;;;;;;;5049937;28;20424;-82
2022/06/07 06:23:32;;;;;;;2.10;1.90;;;;;;;;;;5051733;28;20431;-82
2022/06/07 06:25:58;;;;;;;1.85;1.75;;;;;;;;;;5051668;28;20378;-82
2022/06/07 06:28:25;;;;;;;2.00;1.85;;;;;;;;;;5050776;28;20393;-82
2022/06/07 06:30:52;;;;;;;1.80;1.70;;;;;;;;;;5051665;28;20885;-81
2022/06/07 06:33:18;;;;;;;3.03;1.77;;;;;;;;;;5051540;28;20393;-81
2022/06/07 06:35:51;;;;;;;2.05;1.80;;;;;;;;;;5051504;28;20467;-82
2022/06/07 06:38:17;;;;;;;1.80;1.70;;;;;;;;;;5051969;28;20381;-81
2022/06/07 06:40:45;;;;;;;1.85;1.70;;;;;;;;;;5051432;28;20397;-82
2022/06/07 06:43:11;;;;;;;1.67;1.50;;;;;;;;;;5051837;28;20455;-82
2022/06/07 06:45:37;;;;;;;1.35;1.25;;;;;;;;;;5051656;28;20778;-81
2022/06/07 06:48:03;;;;;;;1.90;1.70;;;;;;;;;;5052104;28;20403;-82
2022/06/07 06:50:29;;;;;;;1.52;1.42;;;;;;;;;;5055596;28;20424;-82
2022/06/07 06:52:55;;;;;;;1.75;1.38;;;;;;;;;;5055138;28;20925;-82
2022/06/07 06:55:21;;;;;;;1.58;1.30;;;;;;;;;;5055014;28;20890;-82
2022/06/07 06:57:48;;;;;;;1.67;1.40;;;;;;;;;;5055433;28;20377;-82
2022/06/07 07:00:15;;;;;;;1.38;1.27;;;;;;;;;;5055048;28;20897;-83
2022/06/07 07:02:41;;;;;;;2.70;1.30;;;;;;;;;;5064778;28;20375;-82
2022/06/07 07:05:07;;;;;;;1.20;1.10;;;;;;;;;;5058082;28;20443;-82
2022/06/07 07:07:35;;;;;;;1.48;1.38;;;;;;;;;;5047832;28;20453;-82
2022/06/07 07:10:01;;;;;;;1.42;1.33;;;;;;;;;;5053583;28;20377;-82
2022/06/07 07:12:27;;;;;;;1.77;1.20;;;;;;;;;;5054378;28;20382;-82
2022/06/07 07:14:54;;;;;;;0.93;0.93;;;;;;;;;;5047349;28;20425;-82
2022/06/07 07:17:20;;;;;;;1.58;1.10;;;;;;;;;;5054665;28;20392;-82
2022/06/07 07:19:46;;;;;;;2.40;1.92;;;;;;;;;;5054360;28;20382;-82
2022/06/07 07:22:12;;;;;;;2.22;1.20;;;;;;;;;;5054368;28;20456;-82
2022/06/07 07:24:38;;;;;;;1.40;1.30;;;;;;;;;;5054638;28;20385;-82
2022/06/07 07:27:04;;;;;;;2.43;1.20;;;;;;;;;;5054500;28;20863;-82
2022/06/07 07:29:30;;;;;;;2.05;1.17;;;;;;;;;;5053571;28;20373;-82
2022/06/07 07:31:56;;;;;;;2.50;1.35;;;;;;;;;;5054386;28;20739;-82
2022/06/07 07:34:22;;;;;;;1.75;1.10;;;;;;;;;;5053904;28;20445;-83
2022/06/07 07:36:50;;;;;;;1.52;1.20;;;;;;;;;;5054399;28;20377;-82
2022/06/07 07:39:16;;;;;;;2.15;1.13;;;;;;;;;;5054242;28;20382;-83
2022/06/07 07:41:45;;;;;;;1.80;1.40;;;;;;;;;;5053380;28;20393;-83
2022/06/07 07:44:12;;;;;;;1.52;1.20;;;;;;;;;;5052651;28;20942;-83
2022/06/07 07:46:39;;;;;;;1.48;1.38;;;;;;;;;;5053787;28;20422;-84
2022/06/07 07:49:05;;;;;;;1.60;1.50;;;;;;;;;;5053870;28;20440;-83
2022/06/07 07:51:36;;;;;;;1.63;1.50;;;;;;;;;;5052860;28;20921;-81
2022/06/07 07:54:03;;;;;;;1.40;1.30;;;;;;;;;;5052582;28;20377;-82
2022/06/07 07:56:29;;;;;;;1.70;1.50;;;;;;;;;;5064812;28;20400;-83
2022/06/07 07:58:56;;;;;;;2.00;1.50;;;;;;;;;;5053842;28;20460;-83
2022/06/07 08:01:23;;;;;;;1.17;1.10;;;;;;;;;;5053450;28;20739;-83
2022/06/07 08:03:50;;;;;;;1.38;1.27;;;;;;;;;;5054088;28;20384;-83
2022/06/07 08:06:18;;;;;;;2.45;2.25;;;;;;;;;;5054109;28;20385;-83
2022/06/07 08:08:44;;;;;;;3.05;2.03;;;;;;;;;;5053580;28;20877;-83
2022/06/07 08:11:11;;;;;;;2.38;2.17;;;;;;;;;;5053348;28;20823;-83
2022/06/07 08:13:37;;;;;;;2.28;2.17;;;;;;;;;;5053497;28;20421;-83
2022/06/07 08:16:04;;;;;;;2.80;2.30;;;;;;;;;;5052733;28;20448;-83
2022/06/07 08:18:30;;;;;;;2.15;2.05;;;;;;;;;;5053157;28;20382;-83
2022/06/07 08:20:58;;;;;;;2.28;1.70;;;;;;;;;;5053240;28;20435;-83
2022/06/07 08:23:24;;;;;;;2.28;1.33;;;;;;;;;;5052745;28;20386;-85
2022/06/07 08:25:50;;;;;;;1.98;1.48;;;;;;;;;;5057948;28;20384;-85
2022/06/07 08:28:17;;;;;;;1.40;1.30;;;;;;;;;;5063908;28;20424;-83
2022/06/07 08:30:45;;;;;;;1.60;1.50;;;;;;;;;;5052040;28;20419;-83
2022/06/07 08:38:45;;;;;;;2.20;1.85;;;;;;;;;;5024728;28;20393;-85
2022/06/07 08:41:22;;;;;;;1.90;1.80;;;;;;;;;;5053134;28;20401;-85
2022/06/07 08:43:48;;;;;;;1.80;1.70;;;;;;;;;;5053240;28;20377;-85
2022/06/07 08:46:16;;;;;;;1.98;1.60;;;;;;;;;;5052935;28;20473;-85
2022/06/07 08:48:43;;;;;;;2.75;1.60;;;;;;;;;;5052252;28;20403;-85
2022/06/07 08:51:25;;;;;;;1.73;1.52;;;;;;;;;;5053080;28;20389;-86
2022/06/07 08:53:56;;;;;;;1.40;1.30;;;;;;;;;;5061366;28;20369;-83
2022/06/07 08:56:25;;;;;;;1.35;1.25;;;;;;;;;;5052982;28;20389;-82
2022/06/07 08:58:52;;;;;;;1.30;1.20;;;;;;;;;;5051787;28;20374;-85
2022/06/07 09:01:36;;;;;;;1.30;1.00;;;;;;;;;;5052331;28;20448;-84
2022/06/07 09:04:02;;;;;;;1.40;1.10;;;;;;;;;;5052385;28;20440;-85
2022/06/07 09:06:33;;;;;;;1.02;0.95;;;;;;;;;;5052660;28;20459;-83
2022/06/07 09:09:00;;;;;;;0.90;0.90;;;;;;;;;;5052114;28;20376;-85
2022/06/07 09:14:23;;;;;;;1.75;1.30;;;;;;;;;;5052341;28;20404;-85
2022/06/07 09:16:49;;;;;;;1.45;0.95;;;;;;;;;;5052469;28;20385;-85
2022/06/07 09:19:18;;;;;;;2.45;1.30;;;;;;;;;;5052450;28;20385;-86
2022/06/07 09:21:45;;;;;;;1.58;1.08;;;;;;;;;;5052387;28;20520;-86
2022/06/07 09:24:21;;;;;;;1.15;1.10;;;;;;;;;;5052489;28;20808;-86
2022/06/07 09:26:48;;;;;;;1.13;0.95;;;;;;;;;;5052419;28;20453;-85
2022/06/07 09:29:17;;;;;;;1.48;1.10;;;;;;;;;;5052295;28;20376;-86
2022/06/07 09:31:44;;;;;;;2.25;1.40;;;;;;;;;;5052268;28;20377;-85
2022/06/07 09:34:17;;;;;;;2.35;1.48;;;;;;;;;;5052054;28;20380;-84
2022/06/07 09:36:47;;;;;;;1.88;1.40;;;;;;;;;;5052203;28;20384;-86
2022/06/07 09:39:25;;;;;;;1.27;1.10;;;;;;;;;;5052159;28;20885;-86
2022/06/07 09:41:57;;;;;;;2.17;1.45;;;;;;;;;;5055977;28;20400;-87
2022/06/07 09:44:26;;;;;;;2.08;1.17;;;;;;;;;;5055236;28;20474;-86
2022/06/07 09:47:03;;;;;;;2.00;1.20;;;;;;;;;;5057961;28;20396;-88
2022/06/07 09:49:31;;;;;;;2.00;1.10;;;;;;;;;;5052481;28;20385;-86
2022/06/07 09:52:03;;;;;;;1.67;1.02;;;;;;;;;;5057469;28;20458;-87
2022/06/07 09:54:29;;;;;;;1.60;1.00;;;;;;;;;;5059549;28;20505;-87
2022/06/07 09:56:55;;;;;;;1.70;1.10;;;;;;;;;;5052320;28;20464;-87
2022/06/07 09:59:34;;;;;;;1.70;1.10;;;;;;;;;;5051939;28;20468;-86
2022/06/07 10:02:09;;;;;;;1.35;1.10;;;;;;;;;;5051823;28;20759;-87
2022/06/07 10:04:35;;;;;;;1.65;1.30;;;;;;;;;;5052206;28;20392;-87
2022/06/07 10:07:04;;;;;;;2.15;1.08;;;;;;;;;;5051884;28;20460;-86
2022/06/07 10:09:45;;;;;;;1.10;0.80;;;;;;;;;;5051941;28;20385;-86
2022/06/07 10:12:19;;;;;;;0.70;0.63;;;;;;;;;;5052090;28;20385;-87
2022/06/07 10:14:57;;;;;;;0.98;0.77;;;;;;;;;;5050613;28;20420;-86
2022/06/07 10:17:40;;;;;;;1.55;1.20;;;;;;;;;;5052111;28;20373;-86
2022/06/07 10:20:20;;;;;;;1.02;0.90;;;;;;;;;;5052056;28;20380;-86
2022/06/07 10:22:46;;;;;;;1.75;0.82;;;;;;;;;;5049194;28;20385;-87
2022/06/07 10:25:24;;;;;;;1.45;1.10;;;;;;;;;;5052015;28;20439;-86
2022/06/07 10:27:59;;;;;;;0.50;0.50;;;;;;;;;;5054480;28;20388;-86
2022/06/07 10:30:28;;;;;;;0.73;0.55;;;;;;;;;;5050270;28;20900;-85
2022/06/07 10:33:02;;;;;;;1.48;0.50;;;;;;;;;;5055536;28;20460;-86
2022/06/07 10:35:41;;;;;;;1.20;0.70;;;;;;;;;;5055593;28;20405;-86
2022/06/07 10:38:07;;;;;;;0.88;0.75;;;;;;;;;;5056090;28;20439;-84
2022/06/07 10:41:03;;;;;;;1.70;0.95;;;;;;;;;;5053128;28;20393;-86
2022/06/07 10:43:32;;;;;;;1.30;0.80;;;;;;;;;;5014943;28;20403;-84
2022/06/07 10:46:01;;;;;;;2.00;1.10;;;;;;;;;;5050858;28;20380;-85
2022/06/07 10:48:33;;;;;;;1.00;0.70;;;;;;;;;;5053935;28;20439;-87
2022/06/07 10:51:03;;;;;;;1.30;0.90;;;;;;;;;;5057774;28;20460;-86
2022/06/07 10:53:31;;;;;;;1.00;0.60;;;;;;;;;;5053930;28;20403;-85
2022/06/07 10:56:03;;;;;;;1.05;0.65;;;;;;;;;;5054059;28;20437;-87
2022/06/07 10:58:31;;;;;;;0.75;0.50;;;;;;;;;;5053554;28;20374;-87
2022/06/07 11:01:09;;;;;;;1.23;0.50;;;;;;;;;;5053695;28;20456;-86
2022/06/07 11:03:56;;;;;;;1.15;0.60;;;;;;;;;;5054544;28;20473;-84
2022/06/07 11:09:21;;;;;;;0.90;0.60;;;;;;;;;;5054954;28;20369;-85
2022/06/07 11:11:52;;;;;;;0.40;0.40;;;;;;;;;;5054394;28;20393;-85
2022/06/07 11:14:25;;;;;;;1.17;0.63;;;;;;;;;;5054041;28;20488;-85
2022/06/07 11:17:01;;;;;;;0.55;0.50;;;;;;;;;;5054380;28;20773;-84
2022/06/07 11:19:27;;;;;;;2.22;0.60;;;;;;;;;;5053896;28;20389;-84
2022/06/07 11:21:55;;;;;;;0.40;0.40;;;;;;;;;;5039017;28;20741;-84
2022/06/07 11:24:27;;;;;;;0.60;0.50;;;;;;;;;;5051672;28;20475;-84
2022/06/07 11:26:54;;;;;;;0.70;0.50;;;;;;;;;;5053498;28;20374;-84
2022/06/07 11:29:22;;;;;;;0.28;0.28;;;;;;;;;;5054046;28;20381;-85
2022/06/07 11:31:48;;;;;;;1.10;0.50;;;;;;;;;;5053370;28;20425;-85
2022/06/07 11:34:25;;;;;;;1.00;0.50;;;;;;;;;;5053225;28;20867;-84
2022/06/07 11:37:14;;;;;;;0.30;0.30;;;;;;;;;;5059255;28;20368;-87
2022/06/07 11:39:40;;;;;;;0.60;0.50;;;;;;;;;;5058256;28;20875;-85
2022/06/07 11:42:12;;;;;;;0.40;0.32;;;;;;;;;;5053720;28;20400;-85
2022/06/07 11:44:45;;;;;;;0.45;0.45;;;;;;;;;;5054138;28;20393;-86
2022/06/07 11:47:12;;;;;;;0.30;0.20;;;;;;;;;;5052660;28;20905;-85
2022/06/07 11:49:40;;;;;;;0.47;0.30;;;;;;;;;;5053212;28;20451;-86
2022/06/07 11:52:13;;;;;;;0.40;0.30;;;;;;;;;;5054066;28;20386;-85
2022/06/07 11:54:54;;;;;;;0.30;0.30;;;;;;;;;;5052726;28;20405;-84
2022/06/07 11:57:38;;;;;;;4.15;0.50;;;;;;;;;;5054203;28;20366;-84
2022/06/07 12:00:19;;;;;;;0.82;0.60;;;;;;;;;;5050695;28;20385;-84
2022/06/07 12:03:00;;;;;;;1.45;0.70;;;;;;;;;;5049662;28;20405;-84
2022/06/07 12:05:32;;;;;;;0.75;0.50;;;;;;;;;;5053767;28;20388;-85
2022/06/07 12:08:00;;;;;;;0.68;0.68;;;;;;;;;;5053153;28;20385;-86
2022/06/07 12:10:29;;;;;;;1.00;0.63;;;;;;;;;;5039834;28;20481;-84
2022/06/07 12:12:57;;;;;;;1.80;0.70;;;;;;;;;;5059327;28;20385;-84
2022/06/07 12:15:25;;;;;;;1.63;0.70;;;;;;;;;;5051551;28;20433;-85
2022/06/07 12:17:53;;;;;;;2.53;0.70;;;;;;;;;;5052463;28;20397;-84
2022/06/07 12:20:24;;;;;;;1.42;0.68;;;;;;;;;;5052580;28;20378;-84
2022/06/07 12:22:50;;;;;;;0.70;0.50;;;;;;;;;;5052437;28;20377;-84
2022/06/07 12:25:18;;;;;;;0.90;0.60;;;;;;;;;;5053034;28;20426;-85
2022/06/07 12:27:46;;;;;;;0.63;0.55;;;;;;;;;;5052745;28;20421;-85
2022/06/07 12:30:27;;;;;;;1.50;0.63;;;;;;;;;;5052395;28;20388;-84
2022/06/07 12:32:54;;;;;;;0.82;0.68;;;;;;;;;;5052132;28;20381;-84
2022/06/07 12:35:30;;;;;;;1.10;1.00;;;;;;;;;;5052146;28;20401;-85
2022/06/07 12:37:57;;;;;;;1.20;0.45;;;;;;;;;;5052124;28;20374;-84
2022/06/07 12:40:47;;;;;;;0.90;0.60;;;;;;;;;;5052133;28;20392;-84
2022/06/07 12:43:28;;;;;;;1.23;0.50;;;;;;;;;;5037659;28;20385;-84
2022/06/07 12:46:03;;;;;;;0.85;0.40;;;;;;;;;;5034602;28;20411;-85
2022/06/07 12:48:34;;;;;;;0.77;0.30;;;;;;;;;;5051452;28;20468;-84
2022/06/07 12:51:01;;;;;;;0.32;0.30;;;;;;;;;;5051974;28;20373;-84
2022/06/07 12:53:28;;;;;;;0.50;0.40;;;;;;;;;;5051907;28;20448;-84
2022/06/07 12:56:11;;;;;;;0.38;0.35;;;;;;;;;;5042223;28;20411;-84
2022/06/07 12:58:43;;;;;;;0.70;0.43;;;;;;;;;;5051047;28;20377;-84
2022/06/07 13:01:21;;;;;;;1.02;0.50;;;;;;;;;;5040930;28;20437;-85
2022/06/07 13:03:48;;;;;;;1.05;0.43;;;;;;;;;;5047973;28;20383;-85
2022/06/07 13:06:18;;;;;;;0.90;0.50;;;;;;;;;;5059587;28;20400;-84
2022/06/07 13:08:44;;;;;;;0.50;0.30;;;;;;;;;;5050856;28;20389;-84
2022/06/07 13:11:11;;;;;;;0.82;0.40;;;;;;;;;;5043199;28;20387;-85
2022/06/07 13:13:39;;;;;;;0.43;0.40;;;;;;;;;;5047546;28;20425;-84
2022/06/07 13:16:11;;;;;;;0.93;0.50;;;;;;;;;;5049113;28;20397;-85
2022/06/07 13:19:12;;;;;;;0.52;0.50;;;;;;;;;;5051512;28;20452;-84
2022/06/07 13:21:40;;;;;;;1.15;0.40;;;;;;;;;;5014008;28;20402;-84
2022/06/07 13:24:14;;;;;;;1.05;0.43;;;;;;;;;;5048160;28;20847;-84
2022/06/07 13:26:42;;;;;;;0.35;0.35;;;;;;;;;;5052632;28;20378;-85
2022/06/07 13:29:11;;;;;;;0.50;0.40;;;;;;;;;;5051974;28;20541;-84
2022/06/07 13:31:49;;;;;;;0.87;0.50;;;;;;;;;;5051176;28;20381;-84
2022/06/07 13:34:26;;;;;;;0.73;0.40;;;;;;;;;;5050419;28;20382;-84
2022/06/07 13:37:09;;;;;;;0.80;0.40;;;;;;;;;;5055963;28;20386;-85
2022/06/07 13:39:36;;;;;;;0.47;0.40;;;;;;;;;;5051132;28;20382;-85
2022/06/07 13:42:14;;;;;;;1.42;0.57;;;;;;;;;;5050899;28;20486;-84
2022/06/07 13:44:45;;;;;;;1.27;0.40;;;;;;;;;;5050902;28;20389;-84
2022/06/07 13:47:21;;;;;;;2.30;0.50;;;;;;;;;;5041630;28;20395;-85
2022/06/07 13:56:05;;;;;;;0.80;0.30;;;;;;;;;;5050286;28;20436;-84
2022/06/07 13:58:41;;;;;;;0.60;0.40;;;;;;;;;;5049195;28;20802;-84
2022/06/07 14:01:17;;;;;;;1.02;0.60;;;;;;;;;;5055109;28;20369;-84
2022/06/07 14:03:48;;;;;;;0.40;0.30;;;;;;;;;;5054944;28;20392;-84
2022/06/07 14:06:26;;;;;;;0.40;0.30;;;;;;;;;;5055119;28;20735;-84
2022/06/07 14:08:52;;;;;;;1.75;0.40;;;;;;;;;;5054952;28;20889;-83
2022/06/07 14:11:19;;;;;;;1.45;0.60;;;;;;;;;;5055690;28;20398;-84
2022/06/07 14:13:45;;;;;;;5.72;1.25;;;;;;;;;;5055926;28;20389;-82
2022/06/07 14:16:26;;;;;;;3.80;1.60;;;;;;;;;;5055226;28;20409;-87
2022/06/07 14:18:52;;;;;;;4.43;1.48;;;;;;;;;;5070007;28;20392;-85
2022/06/07 14:21:18;;;;;;;2.17;0.90;;;;;;;;;;5055701;28;20373;-81
2022/06/07 14:23:44;;;;;;;2.67;0.87;;;;;;;;;;5055762;28;20736;-80
2022/06/07 14:26:12;;;;;;;1.20;0.63;;;;;;;;;;5055783;28;20914;-80
2022/06/07 14:28:38;;;;;;;1.52;0.60;;;;;;;;;;5055760;28;20381;-80
2022/06/07 14:31:06;;;;;;;4.45;0.88;;;;;;;;;;5055632;28;20396;-80
2022/06/07 14:33:33;;;;;;;1.17;0.60;;;;;;;;;;5055523;28;20468;-80
2022/06/07 14:35:59;;;;;;;3.93;0.70;;;;;;;;;;5055481;28;20412;-81
2022/06/07 14:38:25;;;;;;;2.25;0.70;;;;;;;;;;5055516;28;20770;-81
2022/06/07 14:40:51;;;;;;;2.60;0.80;;;;;;;;;;5055240;28;20739;-80
2022/06/07 14:43:22;;;;;;;0.50;0.50;;;;;;;;;;5055386;28;20381;-81
2022/06/07 14:45:57;;;;;;;1.38;0.60;;;;;;;;;;5054224;28;20431;-80
2022/06/07 14:48:26;;;;;;;1.70;0.70;;;;;;;;;;5053660;28;20765;-80
2022/06/07 14:50:52;;;;;;;0.73;0.50;;;;;;;;;;5054915;28;20500;-80
2022/06/07 14:53:18;;;;;;;1.00;0.60;;;;;;;;;;5055072;28;20883;-80
2022/06/07 14:55:44;;;;;;;1.13;0.70;;;;;;;;;;5064042;28;20880;-80
2022/06/07 14:58:10;;;;;;;1.38;1.00;;;;;;;;;;5060023;28;20388;-80
2022/06/07 15:00:36;;;;;;;1.48;1.00;;;;;;;;;;5055095;28;20385;-80
2022/06/07 15:03:03;;;;;;;2.00;0.90;;;;;;;;;;5054988;28;20428;-80
2022/06/07 15:05:34;;;;;;;2.67;1.08;;;;;;;;;;5054946;28;20381;-80
2022/06/07 15:08:00;;;;;;;6.10;1.20;;;;;;;;;;5054531;28;20377;-80
2022/06/07 15:10:27;;;;;;;2.35;1.10;;;;;;;;;;5054341;28;20401;-80
2022/06/07 15:12:54;;;;;;;2.15;0.98;;;;;;;;;;5054831;28;20960;-80
2022/06/07 15:15:20;;;;;;;3.28;1.52;;;;;;;;;;5054255;28;20398;-80
2022/06/07 15:17:52;;;;;;;1.85;1.40;;;;;;;;;;5054795;28;20733;-80
2022/06/07 15:20:26;;;;;;;2.35;1.00;;;;;;;;;;5054843;28;20893;-80